Kezdőlap
METAR-TAF:

METAR-TAF

Repülőterek :

Majuro, Marshall-szigetek

földrajzi szélesség: 07-04N, földrajzi hosszúság: 171-17E, magasság: 2 m

Jelenlegi meteorológiai megfigyelések

A jelentés 33 perccel ezelõtt készült, 20:51 UTC
Hőmérséklet 29°C
Páratartalom 79%
Légköri nyomás 1011 hPa
Látótávolság: 24.1 km
Kevés felhő 1500 lábon
Szórványos felhőzet 5000 lábon
Szakadozott felhőzet 30000 lábon

METAR: PKMJ 272051Z 05012K 15SM FEW015 SCT050 BKN300 29/25 A2984 RMK FIRST

Idő: 09:24 (21:24 UTC)

Előrejelzés

A jelentés 4 órával és 4 perccel ezelõtt készült, 17:20 UTC
Az előrejelzés 27-én 18 óra UTC és 28-én 18 óra UTC között érvényes
Kelet-északkeleti szél 12 kt
Látótávolság: 10 km
Szórványos felhőzet 1500 lábon
Szórványos felhőzet 5000 lábon
Szakadozott felhőzet 12000 lábon
Záporok a közelben,

TAF: PKMJ 271720Z 2718/2818 07012KT P6SM VCSH SCT015 SCT050 BKN120

Meteorológiai megfigyelések és előrejelzések több, mint 4000 repülőtéren (METAR és TAF jelentéseket).

A térképen piros és sárga pontok jelzik az elérhető meteorológiai állomásokat.

Mozgassa az egeret a pont fölött, hogy megjelenjen az állomás neve.

Azután kattintson az időjárási megfigyelések és előrejelzések megtekintéséhez.

A térkép megváltoztatása: kattintson a fekete keresztel jelölt zöld gombra ráközelítéshez, a vonallal jelölt zöld gombra távolításhoz, vagy a zöld nyilakra a szomszédos térképek eléréséhez.


METAR-TAF: